sensor_id;sensor_type;location;lat;lon;timestamp;temperature;humidity
11079;DHT22;5592;49.234;7.268;2023-06-24T00:02:05;12.30;99.90
11079;DHT22;5592;49.234;7.268;2023-06-24T00:04:31;12.30;99.90
11079;DHT22;5592;49.234;7.268;2023-06-24T00:06:57;12.20;99.90
11079;DHT22;5592;49.234;7.268;2023-06-24T00:09:28;12.20;99.90
11079;DHT22;5592;49.234;7.268;2023-06-24T00:11:55;12.20;99.90
11079;DHT22;5592;49.234;7.268;2023-06-24T00:14:21;12.20;99.90
11079;DHT22;5592;49.234;7.268;2023-06-24T00:16:50;12.10;99.90
11079;DHT22;5592;49.234;7.268;2023-06-24T00:19:21;12.10;99.90
11079;DHT22;5592;49.234;7.268;2023-06-24T00:21:48;12.10;99.90
11079;DHT22;5592;49.234;7.268;2023-06-24T00:24:13;12.00;99.90
11079;DHT22;5592;49.234;7.268;2023-06-24T00:26:39;12.00;99.90
11079;DHT22;5592;49.234;7.268;2023-06-24T00:29:04;12.00;99.90
11079;DHT22;5592;49.234;7.268;2023-06-24T00:31:30;12.10;99.90
11079;DHT22;5592;49.234;7.268;2023-06-24T00:33:56;12.10;99.90
11079;DHT22;5592;49.234;7.268;2023-06-24T00:36:21;12.20;99.90
11079;DHT22;5592;49.234;7.268;2023-06-24T00:38:47;12.10;99.90
11079;DHT22;5592;49.234;7.268;2023-06-24T00:41:14;12.00;99.90
11079;DHT22;5592;49.234;7.268;2023-06-24T00:43:41;12.00;99.90
11079;DHT22;5592;49.234;7.268;2023-06-24T00:46:07;11.90;99.90
11079;DHT22;5592;49.234;7.268;2023-06-24T00:48:32;11.80;99.90
11079;DHT22;5592;49.234;7.268;2023-06-24T00:50:58;11.80;99.90
11079;DHT22;5592;49.234;7.268;2023-06-24T00:53:26;11.80;99.90
11079;DHT22;5592;49.234;7.268;2023-06-24T00:55:53;11.90;99.90
11079;DHT22;5592;49.234;7.268;2023-06-24T00:58:21;11.90;99.90
11079;DHT22;5592;49.234;7.268;2023-06-24T01:00:47;11.90;99.90
11079;DHT22;5592;49.234;7.268;2023-06-24T01:03:23;11.80;99.90
11079;DHT22;5592;49.234;7.268;2023-06-24T01:05:49;11.90;99.90
11079;DHT22;5592;49.234;7.268;2023-06-24T01:08:15;11.80;99.90
11079;DHT22;5592;49.234;7.268;2023-06-24T01:10:41;11.80;99.90
11079;DHT22;5592;49.234;7.268;2023-06-24T01:13:07;11.90;99.90
11079;DHT22;5592;49.234;7.268;2023-06-24T01:15:33;11.90;99.90
11079;DHT22;5592;49.234;7.268;2023-06-24T01:18:13;11.90;99.90
11079;DHT22;5592;49.234;7.268;2023-06-24T01:20:49;11.80;99.90
11079;DHT22;5592;49.234;7.268;2023-06-24T01:23:39;11.70;99.90
11079;DHT22;5592;49.234;7.268;2023-06-24T01:26:33;11.70;99.90
11079;DHT22;5592;49.234;7.268;2023-06-24T01:31:37;11.50;99.90
11079;DHT22;5592;49.234;7.268;2023-06-24T01:36:35;11.50;99.90
11079;DHT22;5592;49.234;7.268;2023-06-24T01:39:04;11.50;99.90
11079;DHT22;5592;49.234;7.268;2023-06-24T01:41:45;11.60;99.90
11079;DHT22;5592;49.234;7.268;2023-06-24T01:44:14;11.60;99.90
11079;DHT22;5592;49.234;7.268;2023-06-24T01:46:41;11.60;99.90
11079;DHT22;5592;49.234;7.268;2023-06-24T01:49:10;11.70;99.90
11079;DHT22;5592;49.234;7.268;2023-06-24T01:51:38;11.60;99.90
11079;DHT22;5592;49.234;7.268;2023-06-24T01:54:07;11.60;99.90
11079;DHT22;5592;49.234;7.268;2023-06-24T01:56:36;11.50;99.90
11079;DHT22;5592;49.234;7.268;2023-06-24T01:59:04;11.50;99.90
11079;DHT22;5592;49.234;7.268;2023-06-24T02:01:32;11.40;99.90
11079;DHT22;5592;49.234;7.268;2023-06-24T02:04:00;11.30;99.90
11079;DHT22;5592;49.234;7.268;2023-06-24T02:06:28;11.30;99.90
11079;DHT22;5592;49.234;7.268;2023-06-24T02:08:56;11.30;99.90
11079;DHT22;5592;49.234;7.268;2023-06-24T02:11:24;11.30;99.90
11079;DHT22;5592;49.234;7.268;2023-06-24T02:13:53;11.40;99.90
11079;DHT22;5592;49.234;7.268;2023-06-24T02:16:20;11.30;99.90
11079;DHT22;5592;49.234;7.268;2023-06-24T02:18:46;11.20;99.90
11079;DHT22;5592;49.234;7.268;2023-06-24T02:21:15;11.20;99.90
11079;DHT22;5592;49.234;7.268;2023-06-24T02:23:42;11.20;99.90
11079;DHT22;5592;49.234;7.268;2023-06-24T02:26:09;11.20;99.90
11079;DHT22;5592;49.234;7.268;2023-06-24T02:28:35;11.20;99.90
11079;DHT22;5592;49.234;7.268;2023-06-24T02:31:03;11.20;99.90
11079;DHT22;5592;49.234;7.268;2023-06-24T02:33:29;11.20;99.90
11079;DHT22;5592;49.234;7.268;2023-06-24T02:35:54;11.10;99.90
11079;DHT22;5592;49.234;7.268;2023-06-24T02:38:20;11.10;99.90
11079;DHT22;5592;49.234;7.268;2023-06-24T02:40:46;11.00;99.90
11079;DHT22;5592;49.234;7.268;2023-06-24T02:43:11;11.00;99.90
11079;DHT22;5592;49.234;7.268;2023-06-24T02:45:38;11.00;99.90
11079;DHT22;5592;49.234;7.268;2023-06-24T02:48:05;10.90;99.90
11079;DHT22;5592;49.234;7.268;2023-06-24T02:50:31;10.90;99.90
11079;DHT22;5592;49.234;7.268;2023-06-24T02:52:58;10.90;99.90
11079;DHT22;5592;49.234;7.268;2023-06-24T02:55:24;10.80;99.90
11079;DHT22;5592;49.234;7.268;2023-06-24T02:57:50;10.80;99.90
11079;DHT22;5592;49.234;7.268;2023-06-24T03:00:16;10.80;99.90
11079;DHT22;5592;49.234;7.268;2023-06-24T03:02:43;10.80;99.90
11079;DHT22;5592;49.234;7.268;2023-06-24T03:05:10;10.80;99.90
11079;DHT22;5592;49.234;7.268;2023-06-24T03:07:37;10.70;99.90
11079;DHT22;5592;49.234;7.268;2023-06-24T03:10:03;10.70;99.90
11079;DHT22;5592;49.234;7.268;2023-06-24T03:12:31;10.70;99.90
11079;DHT22;5592;49.234;7.268;2023-06-24T03:14:57;10.70;99.90
11079;DHT22;5592;49.234;7.268;2023-06-24T03:17:22;10.70;99.90
11079;DHT22;5592;49.234;7.268;2023-06-24T03:19:48;10.90;99.90
11079;DHT22;5592;49.234;7.268;2023-06-24T03:22:13;10.90;99.90
11079;DHT22;5592;49.234;7.268;2023-06-24T03:24:39;10.80;99.90
11079;DHT22;5592;49.234;7.268;2023-06-24T03:27:05;10.80;99.90
11079;DHT22;5592;49.234;7.268;2023-06-24T03:29:30;10.80;99.90
11079;DHT22;5592;49.234;7.268;2023-06-24T03:31:56;10.70;99.90
11079;DHT22;5592;49.234;7.268;2023-06-24T03:34:21;10.70;99.90
11079;DHT22;5592;49.234;7.268;2023-06-24T03:36:47;10.70;99.90
11079;DHT22;5592;49.234;7.268;2023-06-24T03:39:12;10.70;99.90
11079;DHT22;5592;49.234;7.268;2023-06-24T03:41:38;10.80;99.90
11079;DHT22;5592;49.234;7.268;2023-06-24T03:44:04;10.80;99.90
11079;DHT22;5592;49.234;7.268;2023-06-24T03:46:30;10.90;99.90
11079;DHT22;5592;49.234;7.268;2023-06-24T03:48:58;10.90;99.90
11079;DHT22;5592;49.234;7.268;2023-06-24T03:51:24;10.90;99.90
11079;DHT22;5592;49.234;7.268;2023-06-24T03:53:50;11.00;99.90
11079;DHT22;5592;49.234;7.268;2023-06-24T03:56:17;11.00;99.90
11079;DHT22;5592;49.234;7.268;2023-06-24T03:58:42;11.00;99.90
11079;DHT22;5592;49.234;7.268;2023-06-24T04:01:08;11.10;99.90
11079;DHT22;5592;49.234;7.268;2023-06-24T04:03:34;11.20;99.90
11079;DHT22;5592;49.234;7.268;2023-06-24T04:06:00;11.20;99.90
11079;DHT22;5592;49.234;7.268;2023-06-24T04:08:27;11.30;99.90
11079;DHT22;5592;49.234;7.268;2023-06-24T04:10:56;11.30;99.90
11079;DHT22;5592;49.234;7.268;2023-06-24T04:13:22;11.40;99.90
11079;DHT22;5592;49.234;7.268;2023-06-24T04:15:48;11.40;99.90
11079;DHT22;5592;49.234;7.268;2023-06-24T04:18:13;11.60;99.90
11079;DHT22;5592;49.234;7.268;2023-06-24T04:20:39;11.70;99.90
11079;DHT22;5592;49.234;7.268;2023-06-24T04:23:05;11.70;99.90
11079;DHT22;5592;49.234;7.268;2023-06-24T04:25:31;11.80;99.90
11079;DHT22;5592;49.234;7.268;2023-06-24T04:27:57;12.00;99.90
11079;DHT22;5592;49.234;7.268;2023-06-24T04:30:22;12.00;99.90
11079;DHT22;5592;49.234;7.268;2023-06-24T04:32:48;12.10;99.90
11079;DHT22;5592;49.234;7.268;2023-06-24T04:35:13;12.30;99.90
11079;DHT22;5592;49.234;7.268;2023-06-24T04:37:39;12.40;99.90
11079;DHT22;5592;49.234;7.268;2023-06-24T04:40:05;12.50;99.90
11079;DHT22;5592;49.234;7.268;2023-06-24T04:42:31;12.60;99.90
11079;DHT22;5592;49.234;7.268;2023-06-24T04:44:57;12.70;99.90
11079;DHT22;5592;49.234;7.268;2023-06-24T04:47:22;12.90;99.90
11079;DHT22;5592;49.234;7.268;2023-06-24T04:49:48;13.20;99.90
11079;DHT22;5592;49.234;7.268;2023-06-24T04:52:13;13.50;99.90
11079;DHT22;5592;49.234;7.268;2023-06-24T04:54:39;13.90;99.90
11079;DHT22;5592;49.234;7.268;2023-06-24T04:57:08;14.40;99.90
11079;DHT22;5592;49.234;7.268;2023-06-24T04:59:34;15.00;99.90
11079;DHT22;5592;49.234;7.268;2023-06-24T05:02:00;16.10;99.90
11079;DHT22;5592;49.234;7.268;2023-06-24T05:04:25;17.30;99.90
11079;DHT22;5592;49.234;7.268;2023-06-24T05:06:51;18.80;99.90
11079;DHT22;5592;49.234;7.268;2023-06-24T05:09:17;20.10;99.90
11079;DHT22;5592;49.234;7.268;2023-06-24T05:11:42;21.00;99.90
11079;DHT22;5592;49.234;7.268;2023-06-24T05:14:08;21.80;99.90
11079;DHT22;5592;49.234;7.268;2023-06-24T05:16:34;22.60;99.90
11079;DHT22;5592;49.234;7.268;2023-06-24T05:18:59;23.00;99.90
11079;DHT22;5592;49.234;7.268;2023-06-24T05:21:25;23.60;99.90
11079;DHT22;5592;49.234;7.268;2023-06-24T05:23:50;24.30;99.90
11079;DHT22;5592;49.234;7.268;2023-06-24T05:26:16;24.80;99.90
11079;DHT22;5592;49.234;7.268;2023-06-24T05:28:41;25.20;99.90
11079;DHT22;5592;49.234;7.268;2023-06-24T05:31:07;25.70;99.90
11079;DHT22;5592;49.234;7.268;2023-06-24T05:33:32;26.20;99.90
11079;DHT22;5592;49.234;7.268;2023-06-24T05:35:58;26.60;99.90
11079;DHT22;5592;49.234;7.268;2023-06-24T05:38:24;26.90;99.90
11079;DHT22;5592;49.234;7.268;2023-06-24T05:40:49;27.20;99.90
11079;DHT22;5592;49.234;7.268;2023-06-24T05:43:15;27.80;99.90
11079;DHT22;5592;49.234;7.268;2023-06-24T05:45:40;28.10;99.90
11079;DHT22;5592;49.234;7.268;2023-06-24T05:48:06;28.20;99.90
11079;DHT22;5592;49.234;7.268;2023-06-24T05:50:31;28.30;99.90
11079;DHT22;5592;49.234;7.268;2023-06-24T05:52:58;28.70;99.90
11079;DHT22;5592;49.234;7.268;2023-06-24T05:55:23;29.10;99.90
11079;DHT22;5592;49.234;7.268;2023-06-24T05:57:49;29.50;99.90
11079;DHT22;5592;49.234;7.268;2023-06-24T06:00:14;29.90;99.90
11079;DHT22;5592;49.234;7.268;2023-06-24T06:02:40;30.40;99.90
11079;DHT22;5592;49.234;7.268;2023-06-24T06:05:05;30.80;99.90
11079;DHT22;5592;49.234;7.268;2023-06-24T06:07:31;30.70;99.90
11079;DHT22;5592;49.234;7.268;2023-06-24T06:09:57;30.50;99.90
11079;DHT22;5592;49.234;7.268;2023-06-24T06:12:22;30.90;99.50
11079;DHT22;5592;49.234;7.268;2023-06-24T06:14:48;31.10;98.60
11079;DHT22;5592;49.234;7.268;2023-06-24T06:17:14;31.40;98.00
11079;DHT22;5592;49.234;7.268;2023-06-24T06:19:40;31.70;96.50
11079;DHT22;5592;49.234;7.268;2023-06-24T06:22:07;32.20;96.90
11079;DHT22;5592;49.234;7.268;2023-06-24T06:24:33;33.20;93.50
11079;DHT22;5592;49.234;7.268;2023-06-24T06:26:58;33.30;93.60
11079;DHT22;5592;49.234;7.268;2023-06-24T06:29:24;33.60;92.70
11079;DHT22;5592;49.234;7.268;2023-06-24T06:31:50;33.30;92.00
11079;DHT22;5592;49.234;7.268;2023-06-24T06:34:16;33.20;92.10
11079;DHT22;5592;49.234;7.268;2023-06-24T06:36:41;33.10;91.70
11079;DHT22;5592;49.234;7.268;2023-06-24T06:39:07;33.60;90.60
11079;DHT22;5592;49.234;7.268;2023-06-24T06:41:32;33.80;90.00
11079;DHT22;5592;49.234;7.268;2023-06-24T06:43:58;33.90;90.10
11079;DHT22;5592;49.234;7.268;2023-06-24T06:46:23;34.30;88.50
11079;DHT22;5592;49.234;7.268;2023-06-24T06:48:49;34.00;88.30
11079;DHT22;5592;49.234;7.268;2023-06-24T06:51:15;34.00;88.80
11079;DHT22;5592;49.234;7.268;2023-06-24T06:53:41;34.60;86.90
11079;DHT22;5592;49.234;7.268;2023-06-24T06:56:07;35.10;88.30
11079;DHT22;5592;49.234;7.268;2023-06-24T06:58:32;35.40;84.80
11079;DHT22;5592;49.234;7.268;2023-06-24T07:00:58;35.70;86.90
11079;DHT22;5592;49.234;7.268;2023-06-24T07:03:27;35.90;84.60
11079;DHT22;5592;49.234;7.268;2023-06-24T07:05:53;35.80;84.70
11079;DHT22;5592;49.234;7.268;2023-06-24T07:08:19;35.60;83.60
11079;DHT22;5592;49.234;7.268;2023-06-24T07:10:44;36.10;81.40
11079;DHT22;5592;49.234;7.268;2023-06-24T07:13:10;36.50;83.40
11079;DHT22;5592;49.234;7.268;2023-06-24T07:15:35;37.00;82.20
11079;DHT22;5592;49.234;7.268;2023-06-24T07:18:01;37.40;79.60
11079;DHT22;5592;49.234;7.268;2023-06-24T07:20:27;37.30;78.30
11079;DHT22;5592;49.234;7.268;2023-06-24T07:22:53;37.70;78.00
11079;DHT22;5592;49.234;7.268;2023-06-24T07:25:18;37.70;76.50
11079;DHT22;5592;49.234;7.268;2023-06-24T07:27:44;37.90;77.40
11079;DHT22;5592;49.234;7.268;2023-06-24T07:30:10;38.40;76.60
11079;DHT22;5592;49.234;7.268;2023-06-24T07:32:35;38.60;74.80
11079;DHT22;5592;49.234;7.268;2023-06-24T07:35:01;38.60;73.50
11079;DHT22;5592;49.234;7.268;2023-06-24T07:37:26;38.70;72.70
11079;DHT22;5592;49.234;7.268;2023-06-24T07:39:52;39.00;72.60
11079;DHT22;5592;49.234;7.268;2023-06-24T07:42:17;38.60;71.70
11079;DHT22;5592;49.234;7.268;2023-06-24T07:44:47;38.80;70.40
11079;DHT22;5592;49.234;7.268;2023-06-24T07:47:14;39.00;70.40
11079;DHT22;5592;49.234;7.268;2023-06-24T07:49:39;39.30;70.10
11079;DHT22;5592;49.234;7.268;2023-06-24T07:52:05;39.70;68.30
11079;DHT22;5592;49.234;7.268;2023-06-24T07:54:31;40.00;70.10
11079;DHT22;5592;49.234;7.268;2023-06-24T07:56:57;40.20;68.60
11079;DHT22;5592;49.234;7.268;2023-06-24T07:59:23;40.20;69.30
11079;DHT22;5592;49.234;7.268;2023-06-24T08:01:48;40.00;67.00
11079;DHT22;5592;49.234;7.268;2023-06-24T08:04:14;40.00;67.20
11079;DHT22;5592;49.234;7.268;2023-06-24T08:06:41;40.30;66.00
11079;DHT22;5592;49.234;7.268;2023-06-24T08:09:06;40.60;63.30
11079;DHT22;5592;49.234;7.268;2023-06-24T08:11:32;41.10;63.40
11079;DHT22;5592;49.234;7.268;2023-06-24T08:13:58;41.30;61.60
11079;DHT22;5592;49.234;7.268;2023-06-24T08:16:23;40.70;61.00
11079;DHT22;5592;49.234;7.268;2023-06-24T08:18:49;40.70;59.90
11079;DHT22;5592;49.234;7.268;2023-06-24T08:21:14;41.10;57.60
11079;DHT22;5592;49.234;7.268;2023-06-24T08:23:40;40.70;56.20
11079;DHT22;5592;49.234;7.268;2023-06-24T08:26:06;41.10;56.50
11079;DHT22;5592;49.234;7.268;2023-06-24T08:28:33;40.30;55.50
11079;DHT22;5592;49.234;7.268;2023-06-24T08:30:58;40.30;57.10
11079;DHT22;5592;49.234;7.268;2023-06-24T08:33:24;40.00;55.20
11079;DHT22;5592;49.234;7.268;2023-06-24T08:35:49;39.60;56.30
11079;DHT22;5592;49.234;7.268;2023-06-24T08:38:15;39.60;56.90
11079;DHT22;5592;49.234;7.268;2023-06-24T08:40:41;40.00;56.20
11079;DHT22;5592;49.234;7.268;2023-06-24T08:43:08;40.10;54.90
11079;DHT22;5592;49.234;7.268;2023-06-24T08:45:34;40.30;54.20
11079;DHT22;5592;49.234;7.268;2023-06-24T08:48:01;40.00;52.90
11079;DHT22;5592;49.234;7.268;2023-06-24T08:50:35;39.60;54.80
11079;DHT22;5592;49.234;7.268;2023-06-24T08:53:03;40.40;52.20
11079;DHT22;5592;49.234;7.268;2023-06-24T08:55:31;40.20;53.20
11079;DHT22;5592;49.234;7.268;2023-06-24T08:57:57;39.60;55.10
11079;DHT22;5592;49.234;7.268;2023-06-24T09:00:23;40.30;54.90
11079;DHT22;5592;49.234;7.268;2023-06-24T09:02:49;40.60;52.50
11079;DHT22;5592;49.234;7.268;2023-06-24T09:05:15;41.00;51.70
11079;DHT22;5592;49.234;7.268;2023-06-24T09:07:40;40.80;51.90
11079;DHT22;5592;49.234;7.268;2023-06-24T09:10:06;40.70;52.40
11079;DHT22;5592;49.234;7.268;2023-06-24T09:12:34;40.50;52.80
11079;DHT22;5592;49.234;7.268;2023-06-24T09:15:00;40.20;52.80
11079;DHT22;5592;49.234;7.268;2023-06-24T09:17:27;39.70;52.70
11079;DHT22;5592;49.234;7.268;2023-06-24T09:19:54;40.00;51.90
11079;DHT22;5592;49.234;7.268;2023-06-24T09:22:28;40.00;53.50
11079;DHT22;5592;49.234;7.268;2023-06-24T09:24:54;39.30;53.80
11079;DHT22;5592;49.234;7.268;2023-06-24T09:27:19;39.00;53.70
11079;DHT22;5592;49.234;7.268;2023-06-24T09:29:47;38.50;53.90
11079;DHT22;5592;49.234;7.268;2023-06-24T09:32:14;38.50;53.90
11079;DHT22;5592;49.234;7.268;2023-06-24T09:34:40;39.20;53.70
11079;DHT22;5592;49.234;7.268;2023-06-24T09:37:06;39.80;50.80
11079;DHT22;5592;49.234;7.268;2023-06-24T09:39:36;39.70;53.40
11079;DHT22;5592;49.234;7.268;2023-06-24T09:42:04;39.40;50.20
11079;DHT22;5592;49.234;7.268;2023-06-24T09:44:30;39.30;51.90
11079;DHT22;5592;49.234;7.268;2023-06-24T09:46:56;39.50;52.80
11079;DHT22;5592;49.234;7.268;2023-06-24T09:49:22;39.80;51.60
11079;DHT22;5592;49.234;7.268;2023-06-24T09:51:49;39.40;50.60
11079;DHT22;5592;49.234;7.268;2023-06-24T09:54:16;38.70;51.90
11079;DHT22;5592;49.234;7.268;2023-06-24T09:56:52;38.70;52.20
11079;DHT22;5592;49.234;7.268;2023-06-24T09:59:19;38.80;53.00
11079;DHT22;5592;49.234;7.268;2023-06-24T10:01:46;39.10;52.30
11079;DHT22;5592;49.234;7.268;2023-06-24T10:04:17;38.80;51.90
11079;DHT22;5592;49.234;7.268;2023-06-24T10:06:43;38.70;52.70
11079;DHT22;5592;49.234;7.268;2023-06-24T10:09:12;39.00;50.90
11079;DHT22;5592;49.234;7.268;2023-06-24T10:11:39;38.90;50.50
11079;DHT22;5592;49.234;7.268;2023-06-24T10:14:05;38.50;51.70
11079;DHT22;5592;49.234;7.268;2023-06-24T10:16:31;37.80;53.00
11079;DHT22;5592;49.234;7.268;2023-06-24T10:19:03;37.20;53.00
11079;DHT22;5592;49.234;7.268;2023-06-24T10:24:12;37.40;54.60
11079;DHT22;5592;49.234;7.268;2023-06-24T10:26:39;37.40;53.90
11079;DHT22;5592;49.234;7.268;2023-06-24T10:36:57;36.80;52.80
11079;DHT22;5592;49.234;7.268;2023-06-24T10:42:39;35.60;53.20
11079;DHT22;5592;49.234;7.268;2023-06-24T10:45:18;34.10;54.80
11079;DHT22;5592;49.234;7.268;2023-06-24T10:47:53;33.50;55.50
11079;DHT22;5592;49.234;7.268;2023-06-24T10:50:22;34.10;56.60
11079;DHT22;5592;49.234;7.268;2023-06-24T10:52:53;34.80;56.20
11079;DHT22;5592;49.234;7.268;2023-06-24T10:55:25;34.80;55.30
11079;DHT22;5592;49.234;7.268;2023-06-24T10:57:51;34.00;56.10
11079;DHT22;5592;49.234;7.268;2023-06-24T11:00:17;33.20;56.80
11079;DHT22;5592;49.234;7.268;2023-06-24T11:02:44;32.10;57.10
11079;DHT22;5592;49.234;7.268;2023-06-24T11:05:09;31.50;58.10
11079;DHT22;5592;49.234;7.268;2023-06-24T11:07:38;31.00;59.20
11079;DHT22;5592;49.234;7.268;2023-06-24T11:10:07;30.60;61.80
11079;DHT22;5592;49.234;7.268;2023-06-24T11:12:34;30.40;61.40
11079;DHT22;5592;49.234;7.268;2023-06-24T11:15:11;30.20;60.20
11079;DHT22;5592;49.234;7.268;2023-06-24T11:17:38;29.90;63.50
11079;DHT22;5592;49.234;7.268;2023-06-24T11:20:09;29.90;60.60
11079;DHT22;5592;49.234;7.268;2023-06-24T11:22:35;30.50;62.60
11079;DHT22;5592;49.234;7.268;2023-06-24T11:25:00;31.10;59.20
11079;DHT22;5592;49.234;7.268;2023-06-24T11:27:27;31.50;56.40
11079;DHT22;5592;49.234;7.268;2023-06-24T11:29:54;31.90;55.40
11079;DHT22;5592;49.234;7.268;2023-06-24T11:32:20;32.20;56.80
11079;DHT22;5592;49.234;7.268;2023-06-24T11:34:46;32.40;55.90
11079;DHT22;5592;49.234;7.268;2023-06-24T11:37:13;32.90;57.80
11079;DHT22;5592;49.234;7.268;2023-06-24T11:39:39;32.80;55.40
11079;DHT22;5592;49.234;7.268;2023-06-24T11:42:08;32.30;54.80
11079;DHT22;5592;49.234;7.268;2023-06-24T11:44:34;31.50;55.70
11079;DHT22;5592;49.234;7.268;2023-06-24T11:47:07;31.80;56.40
11079;DHT22;5592;49.234;7.268;2023-06-24T11:49:52;31.90;55.60
11079;DHT22;5592;49.234;7.268;2023-06-24T11:52:40;32.30;57.70
11079;DHT22;5592;49.234;7.268;2023-06-24T11:55:23;32.50;56.50
11079;DHT22;5592;49.234;7.268;2023-06-24T11:58:02;33.10;56.40
11079;DHT22;5592;49.234;7.268;2023-06-24T12:00:31;33.10;56.70
11079;DHT22;5592;49.234;7.268;2023-06-24T12:03:00;32.90;55.10
11079;DHT22;5592;49.234;7.268;2023-06-24T12:05:28;31.70;55.90
11079;DHT22;5592;49.234;7.268;2023-06-24T12:07:55;31.50;58.50
11079;DHT22;5592;49.234;7.268;2023-06-24T12:10:21;32.00;59.10
11079;DHT22;5592;49.234;7.268;2023-06-24T12:12:51;32.30;57.10
11079;DHT22;5592;49.234;7.268;2023-06-24T12:15:16;31.90;55.80
11079;DHT22;5592;49.234;7.268;2023-06-24T12:17:42;31.50;57.40
11079;DHT22;5592;49.234;7.268;2023-06-24T12:20:08;31.10;57.20
11079;DHT22;5592;49.234;7.268;2023-06-24T12:22:35;30.70;56.60
11079;DHT22;5592;49.234;7.268;2023-06-24T12:25:00;30.20;57.60
11079;DHT22;5592;49.234;7.268;2023-06-24T12:27:26;29.90;59.60
11079;DHT22;5592;49.234;7.268;2023-06-24T12:29:51;29.80;60.20
11079;DHT22;5592;49.234;7.268;2023-06-24T12:32:17;29.90;62.60
11079;DHT22;5592;49.234;7.268;2023-06-24T12:34:42;30.50;63.80
11079;DHT22;5592;49.234;7.268;2023-06-24T12:37:08;31.10;58.50
11079;DHT22;5592;49.234;7.268;2023-06-24T12:39:33;31.00;58.20
11079;DHT22;5592;49.234;7.268;2023-06-24T12:41:59;30.60;59.40
11079;DHT22;5592;49.234;7.268;2023-06-24T12:44:24;30.20;59.00
11079;DHT22;5592;49.234;7.268;2023-06-24T12:46:50;30.20;58.30
11079;DHT22;5592;49.234;7.268;2023-06-24T12:49:15;30.00;60.40
11079;DHT22;5592;49.234;7.268;2023-06-24T12:51:41;30.00;61.50
11079;DHT22;5592;49.234;7.268;2023-06-24T12:54:06;29.70;59.20
11079;DHT22;5592;49.234;7.268;2023-06-24T12:56:32;29.90;61.00
11079;DHT22;5592;49.234;7.268;2023-06-24T12:58:57;30.10;59.00
11079;DHT22;5592;49.234;7.268;2023-06-24T13:01:23;29.70;59.00
11079;DHT22;5592;49.234;7.268;2023-06-24T13:03:48;30.00;61.60
11079;DHT22;5592;49.234;7.268;2023-06-24T13:06:14;30.40;60.00
11079;DHT22;5592;49.234;7.268;2023-06-24T13:08:39;30.80;59.10
11079;DHT22;5592;49.234;7.268;2023-06-24T13:11:05;31.20;60.80
11079;DHT22;5592;49.234;7.268;2023-06-24T13:13:30;31.40;57.20
11079;DHT22;5592;49.234;7.268;2023-06-24T13:15:56;31.20;56.70
11079;DHT22;5592;49.234;7.268;2023-06-24T13:18:21;31.10;56.90
11079;DHT22;5592;49.234;7.268;2023-06-24T13:20:47;30.90;57.00
11079;DHT22;5592;49.234;7.268;2023-06-24T13:23:15;30.60;57.50
11079;DHT22;5592;49.234;7.268;2023-06-24T13:25:41;30.60;57.00
11079;DHT22;5592;49.234;7.268;2023-06-24T13:28:06;30.50;59.30
11079;DHT22;5592;49.234;7.268;2023-06-24T13:30:32;30.60;57.30
11079;DHT22;5592;49.234;7.268;2023-06-24T13:32:58;30.50;59.20
11079;DHT22;5592;49.234;7.268;2023-06-24T13:35:23;30.50;58.50
11079;DHT22;5592;49.234;7.268;2023-06-24T13:37:49;30.50;57.60
11079;DHT22;5592;49.234;7.268;2023-06-24T13:40:14;30.40;57.70
11079;DHT22;5592;49.234;7.268;2023-06-24T13:42:40;30.20;57.70
11079;DHT22;5592;49.234;7.268;2023-06-24T13:45:09;30.20;58.60
11079;DHT22;5592;49.234;7.268;2023-06-24T13:47:35;30.10;58.20
11079;DHT22;5592;49.234;7.268;2023-06-24T13:50:04;30.10;58.30
11079;DHT22;5592;49.234;7.268;2023-06-24T13:52:29;30.10;57.30
11079;DHT22;5592;49.234;7.268;2023-06-24T13:54:55;30.20;57.80
11079;DHT22;5592;49.234;7.268;2023-06-24T13:57:21;30.00;58.30
11079;DHT22;5592;49.234;7.268;2023-06-24T13:59:46;29.80;58.90
11079;DHT22;5592;49.234;7.268;2023-06-24T14:02:12;29.80;59.00
11079;DHT22;5592;49.234;7.268;2023-06-24T14:04:38;29.50;58.70
11079;DHT22;5592;49.234;7.268;2023-06-24T14:07:05;29.50;59.20
11079;DHT22;5592;49.234;7.268;2023-06-24T14:09:31;29.70;58.00
11079;DHT22;5592;49.234;7.268;2023-06-24T14:11:57;29.80;59.30
11079;DHT22;5592;49.234;7.268;2023-06-24T14:14:23;29.80;57.50
11079;DHT22;5592;49.234;7.268;2023-06-24T14:16:48;29.70;59.10
11079;DHT22;5592;49.234;7.268;2023-06-24T14:19:14;29.80;58.30
11079;DHT22;5592;49.234;7.268;2023-06-24T14:21:39;29.80;57.10
11079;DHT22;5592;49.234;7.268;2023-06-24T14:24:05;29.90;57.20
11079;DHT22;5592;49.234;7.268;2023-06-24T14:26:32;29.90;57.20
11079;DHT22;5592;49.234;7.268;2023-06-24T14:28:58;29.90;56.60
11079;DHT22;5592;49.234;7.268;2023-06-24T14:31:23;29.90;59.30
11079;DHT22;5592;49.234;7.268;2023-06-24T14:33:49;30.00;59.20
11079;DHT22;5592;49.234;7.268;2023-06-24T14:36:17;29.90;58.10
11079;DHT22;5592;49.234;7.268;2023-06-24T14:38:43;29.90;57.50
11079;DHT22;5592;49.234;7.268;2023-06-24T14:41:10;29.70;57.60
11079;DHT22;5592;49.234;7.268;2023-06-24T14:43:35;29.60;58.10
11079;DHT22;5592;49.234;7.268;2023-06-24T14:46:01;29.50;58.70
11079;DHT22;5592;49.234;7.268;2023-06-24T14:48:27;29.70;58.70
11079;DHT22;5592;49.234;7.268;2023-06-24T14:50:53;29.90;58.10
11079;DHT22;5592;49.234;7.268;2023-06-24T14:53:18;29.90;58.80
11079;DHT22;5592;49.234;7.268;2023-06-24T14:55:45;29.70;57.70
11079;DHT22;5592;49.234;7.268;2023-06-24T14:58:10;29.70;57.00
11079;DHT22;5592;49.234;7.268;2023-06-24T15:00:36;29.70;57.30
11079;DHT22;5592;49.234;7.268;2023-06-24T15:03:02;29.70;58.50
11079;DHT22;5592;49.234;7.268;2023-06-24T15:05:27;29.80;57.30
11079;DHT22;5592;49.234;7.268;2023-06-24T15:07:53;29.60;58.60
11079;DHT22;5592;49.234;7.268;2023-06-24T15:10:18;29.70;57.60
11079;DHT22;5592;49.234;7.268;2023-06-24T15:12:44;29.80;57.60
11079;DHT22;5592;49.234;7.268;2023-06-24T15:15:09;29.80;58.50
11079;DHT22;5592;49.234;7.268;2023-06-24T15:17:35;29.80;58.00
11079;DHT22;5592;49.234;7.268;2023-06-24T15:20:08;29.70;58.00
11079;DHT22;5592;49.234;7.268;2023-06-24T15:22:37;29.70;57.70
11079;DHT22;5592;49.234;7.268;2023-06-24T15:25:04;29.60;57.60
11079;DHT22;5592;49.234;7.268;2023-06-24T15:27:29;29.60;57.30
11079;DHT22;5592;49.234;7.268;2023-06-24T15:29:55;29.60;58.10
11079;DHT22;5592;49.234;7.268;2023-06-24T15:32:20;29.60;58.30
11079;DHT22;5592;49.234;7.268;2023-06-24T15:34:46;29.50;58.30
11079;DHT22;5592;49.234;7.268;2023-06-24T15:37:11;29.50;58.80
11079;DHT22;5592;49.234;7.268;2023-06-24T15:39:40;29.40;58.50
11079;DHT22;5592;49.234;7.268;2023-06-24T15:42:05;29.30;58.60
11079;DHT22;5592;49.234;7.268;2023-06-24T15:44:31;29.20;59.10
11079;DHT22;5592;49.234;7.268;2023-06-24T15:46:56;29.30;59.50
11079;DHT22;5592;49.234;7.268;2023-06-24T15:49:22;29.30;59.10
11079;DHT22;5592;49.234;7.268;2023-06-24T15:51:48;29.20;58.80
11079;DHT22;5592;49.234;7.268;2023-06-24T15:54:13;29.20;58.30
11079;DHT22;5592;49.234;7.268;2023-06-24T15:56:39;29.30;58.50
11079;DHT22;5592;49.234;7.268;2023-06-24T15:59:04;29.20;58.00
11079;DHT22;5592;49.234;7.268;2023-06-24T16:01:30;29.10;59.30